Time;durP1;ratioP1;P1;durP2;ratioP2;P2;SDS_P1;SDS_P2;PMS_P1;PMS_P2;Temp;Humidity;BMP_temperature;BMP_pressure;BME280_temperature;BME280_humidity;BME280_pressure;Samples;Min_cycle;Max_cycle;Signal;HPM_P1;HPM_P2
2023/12/29 00:02:25;;;;;;;2.33;1.70;;;;;;;-4.51;79.19;94087.66;6269936;28;20133;-66
2023/12/29 00:05:28;;;;;;;2.95;1.60;;;;;;;-4.40;78.74;94102.53;6269588;28;20106;-67
2023/12/29 00:08:32;;;;;;;2.33;1.85;;;;;;;-4.59;78.73;94088.03;6269455;28;20040;-67
2023/12/29 00:11:36;;;;;;;2.00;1.80;;;;;;;-4.75;78.68;94097.44;6251964;28;20040;-67
2023/12/29 00:14:40;;;;;;;2.95;1.83;;;;;;;-4.75;78.96;94105.13;6269493;28;20045;-67
2023/12/29 00:17:41;;;;;;;2.00;1.63;;;;;;;-4.76;79.16;94108.59;6268607;28;20533;-66
2023/12/29 00:20:45;;;;;;;3.38;1.83;;;;;;;-4.76;79.12;94117.09;6251076;28;20048;-68
2023/12/29 00:23:48;;;;;;;;;;;;;;;-4.73;78.93;94123.81;6268619;28;20056;-65
2023/12/29 00:26:52;;;;;;;2.95;1.88;;;;;;;-4.82;78.70;94117.41;6269020;28;19917;-67
2023/12/29 00:29:56;;;;;;;3.90;1.70;;;;;;;-4.78;79.28;94125.81;6268328;28;20055;-66
2023/12/29 00:32:58;;;;;;;2.58;1.75;;;;;;;-4.73;78.94;94131.50;6268830;28;20040;-66
2023/12/29 00:35:59;;;;;;;3.10;1.35;;;;;;;-4.62;78.44;94131.00;6268164;28;20048;-66
2023/12/29 00:39:03;;;;;;;;;;;;;;;-4.73;78.25;94141.78;6269285;28;20418;-66
2023/12/29 00:42:06;;;;;;;2.42;1.98;;;;;;;-4.66;78.03;94132.88;6268094;28;20011;-66
2023/12/29 00:45:11;;;;;;;2.17;1.38;;;;;;;-4.78;77.64;94143.75;6268617;28;20122;-67
2023/12/29 00:48:15;;;;;;;;;;;;;;;-4.79;77.85;94148.03;6269045;28;20446;-66
2023/12/29 00:51:18;;;;;;;2.30;2.00;;;;;;;-4.88;78.06;94143.38;6268715;28;19920;-66
2023/12/29 00:54:25;;;;;;;3.35;1.73;;;;;;;-4.84;78.10;94156.84;6248207;28;20155;-66
2023/12/29 00:57:27;;;;;;;2.28;1.33;;;;;;;-4.98;78.58;94150.69;6243781;28;20041;-67
2023/12/29 01:00:30;;;;;;;1.67;1.52;;;;;;;-5.05;78.49;94162.13;6243873;28;20045;-67
2023/12/29 01:03:34;;;;;;;;;;;;;;;-4.93;78.10;94170.97;6227011;28;20066;-66
2023/12/29 01:06:35;;;;;;;2.67;1.75;;;;;;;-5.21;78.69;94182.53;6243805;28;19928;-66
2023/12/29 01:09:42;;;;;;;2.10;1.55;;;;;;;-5.15;78.15;94180.56;6244937;28;20499;-65
2023/12/29 01:12:45;;;;;;;3.95;2.13;;;;;;;-5.21;77.73;94148.38;6226731;28;20131;-67
2023/12/29 01:15:49;;;;;;;2.63;1.80;;;;;;;-5.26;77.90;94152.91;6243734;28;20157;-66
2023/12/29 01:18:56;;;;;;;2.50;1.45;;;;;;;-5.16;77.03;94161.81;6243686;28;20048;-67
2023/12/29 01:21:58;;;;;;;1.55;1.13;;;;;;;-5.39;76.97;94162.88;6243059;28;20045;-67
2023/12/29 01:25:00;;;;;;;2.00;1.50;;;;;;;-5.46;77.50;94172.59;6242863;28;20124;-68
2023/12/29 01:28:03;;;;;;;3.10;2.03;;;;;;;-5.42;76.81;94184.34;6243183;28;20049;-66
2023/12/29 01:31:08;;;;;;;1.65;1.48;;;;;;;-5.47;76.82;94191.41;6226324;28;20045;-67
2023/12/29 01:34:12;;;;;;;1.67;1.35;;;;;;;-5.67;76.18;94204.28;6243480;28;20041;-67
2023/12/29 01:37:16;;;;;;;2.65;1.80;;;;;;;-5.71;75.95;94213.03;6246918;28;20048;-67
2023/12/29 01:40:20;;;;;;;2.65;1.88;;;;;;;-5.85;76.28;94221.31;6248439;28;20056;-67
2023/12/29 01:43:24;;;;;;;1.45;1.35;;;;;;;-6.02;76.25;94224.63;6247715;28;20049;-67
2023/12/29 01:46:30;;;;;;;3.08;2.10;;;;;;;-6.14;76.54;94235.41;6247656;28;20041;-68
2023/12/29 01:49:34;;;;;;;3.67;2.00;;;;;;;-6.27;75.73;94226.56;6247264;28;20057;-66
2023/12/29 01:52:36;;;;;;;2.10;1.75;;;;;;;-6.12;75.91;94246.38;6246754;28;20136;-67
2023/12/29 01:55:42;;;;;;;3.63;1.77;;;;;;;-6.25;75.95;94261.44;6229991;28;20140;-68
2023/12/29 01:58:45;;;;;;;2.05;1.50;;;;;;;-6.27;75.80;94254.72;6247291;28;20057;-68
2023/12/29 02:01:47;;;;;;;2.53;1.80;;;;;;;-6.57;75.61;94262.75;6247995;28;20087;-67
2023/12/29 02:04:48;;;;;;;2.45;1.67;;;;;;;-6.53;75.85;94248.94;6246902;28;20081;-67
2023/12/29 02:07:53;;;;;;;3.58;2.00;;;;;;;-6.72;75.82;94273.59;6229366;28;20050;-67
2023/12/29 02:10:56;;;;;;;2.67;2.05;;;;;;;-6.78;75.53;94275.50;6247789;28;20041;-67
2023/12/29 02:14:02;;;;;;;2.72;1.75;;;;;;;-6.88;76.17;94278.47;6247536;28;20448;-67
2023/12/29 02:17:26;;;;;;;3.47;1.77;;;;;;;-6.95;75.88;94274.50;6246656;28;20080;-68
2023/12/29 02:20:33;;;;;;;2.75;2.03;;;;;;;-7.29;75.70;94289.38;6247316;28;20046;-67
2023/12/29 02:23:38;;;;;;;2.65;2.15;;;;;;;-7.42;76.07;94292.44;6246203;28;20049;-67
2023/12/29 02:26:47;;;;;;;2.28;1.88;;;;;;;-7.55;75.87;94309.94;6246178;28;20312;-68
2023/12/29 02:30:02;;;;;;;3.15;2.00;;;;;;;-7.49;76.74;94304.59;6247090;28;20103;-68
2023/12/29 02:33:10;;;;;;;3.15;2.35;;;;;;;-7.58;76.81;94307.50;6246237;28;20045;-67
2023/12/29 02:36:16;;;;;;;3.40;1.73;;;;;;;-7.61;76.47;94297.38;6246026;28;20053;-67
2023/12/29 02:39:23;;;;;;;1.77;1.50;;;;;;;-7.61;76.15;94307.56;6246760;28;20041;-68
2023/12/29 02:42:29;;;;;;;2.10;1.90;;;;;;;-7.55;75.82;94322.72;6246580;28;20045;-68
2023/12/29 02:45:32;;;;;;;;;;;;;;;-7.50;74.75;94333.56;6245809;28;20128;-66
2023/12/29 02:48:36;;;;;;;3.08;1.80;;;;;;;-7.50;74.35;94329.31;6245132;28;19921;-67
2023/12/29 02:51:37;;;;;;;1.88;1.67;;;;;;;-7.59;73.80;94339.84;6245623;28;20052;-67
2023/12/29 02:54:43;;;;;;;3.38;2.50;;;;;;;-7.78;73.90;94351.59;6246380;28;20053;-67
2023/12/29 02:57:47;;;;;;;3.67;2.58;;;;;;;-7.94;74.19;94349.56;6246282;28;20052;-67
2023/12/29 03:00:49;;;;;;;2.13;1.90;;;;;;;-7.90;74.43;94373.25;6245451;28;20052;-68
2023/12/29 03:03:50;;;;;;;3.72;2.50;;;;;;;-8.02;74.50;94373.66;6245805;28;20038;-67
2023/12/29 03:06:54;;;;;;;;;;;;;;;-8.09;73.85;94383.25;6228732;28;20442;-67
2023/12/29 03:09:58;;;;;;;2.75;2.40;;;;;;;-8.24;75.33;94384.56;6245361;28;19916;-69
2023/12/29 03:13:00;;;;;;;4.22;2.47;;;;;;;-8.27;74.83;94379.56;6245823;28;20046;-68
2023/12/29 03:16:02;;;;;;;2.28;2.08;;;;;;;-8.21;75.08;94398.94;6245870;28;20487;-68
2023/12/29 03:19:04;;;;;;;3.35;2.42;;;;;;;-8.11;74.92;94405.41;6245144;28;20061;-66
2023/12/29 03:22:10;;;;;;;3.58;2.53;;;;;;;-8.03;74.08;94400.91;6244624;28;20423;-67
2023/12/29 03:25:17;;;;;;;2.67;2.33;;;;;;;-8.01;74.58;94411.03;6245536;28;20045;-67
2023/12/29 03:28:20;;;;;;;3.42;2.42;;;;;;;-7.97;74.12;94407.53;6244938;28;20111;-66
2023/12/29 03:31:26;;;;;;;3.53;2.55;;;;;;;-7.98;73.93;94421.16;6245505;28;20439;-68
2023/12/29 03:34:27;;;;;;;3.40;2.78;;;;;;;-7.91;73.96;94412.41;6244716;28;20072;-68
2023/12/29 03:37:34;;;;;;;3.53;2.75;;;;;;;-7.91;73.65;94409.88;6245206;28;20045;-68
2023/12/29 03:40:37;;;;;;;3.97;2.78;;;;;;;-7.89;73.63;94425.16;6244903;28;20140;-67
2023/12/29 03:43:43;;;;;;;3.40;2.53;;;;;;;-7.86;73.60;94420.78;6245058;28;20364;-68
2023/12/29 03:46:47;;;;;;;4.35;2.80;;;;;;;-7.85;73.34;94427.53;6245034;28;20045;-67
2023/12/29 03:49:51;;;;;;;4.55;2.97;;;;;;;-7.96;73.44;94439.81;6244206;28;20046;-67
2023/12/29 03:52:57;;;;;;;4.53;3.15;;;;;;;-7.90;73.86;94434.50;6244628;28;20411;-68
2023/12/29 03:55:59;;;;;;;2.78;2.13;;;;;;;-7.77;72.95;94440.88;6244243;28;20053;-67
2023/12/29 03:59:00;;;;;;;2.70;2.33;;;;;;;-7.70;71.88;94442.34;6243351;28;20438;-67
2023/12/29 04:02:02;;;;;;;5.20;3.10;;;;;;;-7.88;72.89;94442.94;6244182;28;20045;-67
2023/12/29 04:05:12;;;;;;;3.80;2.97;;;;;;;-7.84;72.74;94439.44;6244895;28;20045;-68
2023/12/29 04:08:17;;;;;;;3.22;2.67;;;;;;;-7.97;72.79;94453.47;6226426;28;20161;-67
2023/12/29 04:11:20;;;;;;;3.75;2.53;;;;;;;-7.93;72.14;94444.81;6243611;28;20432;-66
2023/12/29 04:14:24;;;;;;;7.28;3.50;;;;;;;-7.98;72.14;94451.78;6244532;28;20041;-67
2023/12/29 04:17:26;;;;;;;3.53;2.47;;;;;;;-7.87;71.65;94459.91;6243198;28;20187;-67
2023/12/29 04:20:27;;;;;;;3.58;3.03;;;;;;;-7.87;71.74;94462.47;6243479;28;20080;-66
2023/12/29 04:23:34;;;;;;;3.65;2.55;;;;;;;-7.96;71.90;94462.78;6244609;28;20049;-66
2023/12/29 04:26:38;;;;;;;4.20;3.10;;;;;;;-7.94;71.13;94476.34;6226874;28;20037;-68
2023/12/29 04:29:43;;;;;;;2.70;2.33;;;;;;;-7.94;71.13;94478.88;6243803;28;20045;-68
2023/12/29 04:32:45;;;;;;;4.97;2.90;;;;;;;-8.05;71.42;94486.03;6243624;28;20081;-68
2023/12/29 04:35:47;;;;;;;4.15;2.42;;;;;;;-7.98;70.66;94492.59;6243165;28;20092;-68
2023/12/29 04:38:49;;;;;;;3.08;2.58;;;;;;;-8.17;70.58;94477.88;6226255;28;20057;-68
2023/12/29 04:41:53;;;;;;;3.28;2.47;;;;;;;-8.09;70.10;94494.69;6242960;28;20518;-67
2023/12/29 04:44:57;;;;;;;7.55;3.35;;;;;;;-8.25;70.43;94495.13;6244163;28;20045;-69
2023/12/29 04:48:03;;;;;;;;;;;;;;;-8.23;69.52;94521.44;6244407;28;20124;-66
2023/12/29 04:51:13;;;;;;;5.35;2.70;;;;;;;-8.25;69.79;94524.91;6243967;28;20386;-68
2023/12/29 04:54:18;;;;;;;2.13;1.80;;;;;;;-8.27;70.32;94545.34;6262613;28;20056;-67
2023/12/29 04:57:26;;;;;;;3.65;2.30;;;;;;;-8.45;70.61;94539.13;6268488;28;20048;-68
2023/12/29 05:00:32;;;;;;;4.90;2.20;;;;;;;-8.32;69.67;94544.69;6268855;28;20057;-68
2023/12/29 05:03:41;;;;;;;3.30;2.33;;;;;;;-8.37;69.79;94564.38;6268478;28;20056;-68
2023/12/29 05:06:42;;;;;;;3.88;2.80;;;;;;;-8.53;69.09;94530.84;6267636;28;20045;-67
2023/12/29 05:09:47;;;;;;;4.53;3.30;;;;;;;-8.60;68.53;94544.66;6269780;28;20063;-68
2023/12/29 05:12:49;;;;;;;3.75;2.70;;;;;;;-8.75;69.03;94530.59;6272235;28;20055;-67
2023/12/29 05:15:52;;;;;;;;;;;;;;;-8.87;69.11;94546.25;6273734;28;20044;-67
2023/12/29 05:18:57;;;;;;;5.70;3.35;;;;;;;-9.00;69.71;94555.09;6273140;28;19927;-67
2023/12/29 05:22:00;;;;;;;5.20;2.95;;;;;;;-9.00;68.90;94544.88;6254596;28;20132;-67
2023/12/29 05:25:02;;;;;;;5.72;3.55;;;;;;;-8.94;68.32;94554.94;6273263;28;20859;-67
2023/12/29 05:28:10;;;;;;;3.05;2.75;;;;;;;-8.83;68.61;94569.06;6273045;28;20041;-67
2023/12/29 05:31:14;;;;;;;4.78;3.45;;;;;;;-8.73;68.91;94562.00;6272967;28;20526;-67
2023/12/29 05:34:21;;;;;;;3.70;3.08;;;;;;;-8.29;68.13;94557.34;6273322;28;20718;-68
2023/12/29 05:37:22;;;;;;;6.13;2.65;;;;;;;-8.14;68.25;94579.84;6273033;28;20037;-67
2023/12/29 05:40:26;;;;;;;5.82;3.28;;;;;;;-8.06;67.72;94591.56;6255482;28;20499;-67
2023/12/29 05:43:28;;;;;;;3.60;3.03;;;;;;;-7.98;68.29;94600.66;6272210;28;20041;-67
2023/12/29 05:46:29;;;;;;;3.20;2.90;;;;;;;-7.98;68.13;94605.75;6272584;28;20037;-69
2023/12/29 05:49:37;;;;;;;3.45;2.42;;;;;;;-8.00;68.42;94637.31;6272745;28;20037;-68
2023/12/29 05:52:39;;;;;;;2.55;1.85;;;;;;;-7.92;69.26;94640.47;6265698;28;20050;-67
2023/12/29 05:55:45;;;;;;;3.03;2.33;;;;;;;-7.96;69.63;94657.56;6247061;28;20088;-68
2023/12/29 05:58:49;;;;;;;2.95;2.40;;;;;;;-7.90;69.64;94654.00;6262171;28;20054;-67
2023/12/29 06:01:53;;;;;;;4.13;3.15;;;;;;;-7.85;69.42;94669.19;6247760;28;20422;-67
2023/12/29 06:04:57;;;;;;;3.83;2.60;;;;;;;-7.78;69.73;94674.09;6247571;28;20080;-67
2023/12/29 06:07:58;;;;;;;4.95;3.65;;;;;;;-7.80;68.95;94675.00;6247092;28;20046;-68
2023/12/29 06:11:03;;;;;;;6.78;3.10;;;;;;;-7.61;67.49;94695.72;6246567;28;20108;-68
2023/12/29 06:14:07;;;;;;;3.30;2.88;;;;;;;-7.62;67.28;94714.50;6247041;28;20049;-66
2023/12/29 06:17:10;;;;;;;6.45;2.38;;;;;;;-7.54;66.71;94707.44;6246154;28;20052;-68
2023/12/29 06:20:12;;;;;;;3.80;3.00;;;;;;;-7.50;66.43;94714.97;6246617;28;20053;-69
2023/12/29 06:23:20;;;;;;;4.13;2.15;;;;;;;-7.42;66.16;94699.41;6246601;28;20045;-69
2023/12/29 06:26:24;;;;;;;3.92;3.10;;;;;;;-7.37;65.78;94707.78;6247403;28;20045;-68
2023/12/29 06:29:28;;;;;;;5.05;2.65;;;;;;;-7.29;65.80;94705.84;6246490;28;20715;-68
2023/12/29 06:32:35;;;;;;;5.22;3.25;;;;;;;-7.13;65.22;94682.34;6229523;28;20045;-67
2023/12/29 06:35:38;;;;;;;4.13;2.30;;;;;;;-7.05;65.50;94701.69;6245780;28;20573;-68
2023/12/29 06:38:40;;;;;;;3.78;2.55;;;;;;;-7.07;64.79;94692.41;6245695;28;20140;-68
2023/12/29 06:41:44;;;;;;;;;;;;;;;-6.94;64.17;94713.28;6247329;28;20045;-67
2023/12/29 06:44:47;;;;;;;3.40;2.58;;;;;;;-6.94;63.77;94714.13;6246917;28;20066;-68
2023/12/29 06:47:51;;;;;;;3.88;2.42;;;;;;;-6.80;63.95;94717.06;6246647;28;20136;-68
2023/12/29 06:50:53;;;;;;;2.22;1.88;;;;;;;-6.59;63.36;94717.28;6246628;28;20044;-68
2023/12/29 06:53:56;;;;;;;4.07;2.60;;;;;;;-6.51;63.25;94728.09;6246427;28;20057;-67
2023/12/29 06:56:58;;;;;;;2.28;1.88;;;;;;;-6.21;63.30;94725.38;6245619;28;20546;-67
2023/12/29 07:00:02;;;;;;;2.72;2.20;;;;;;;-5.87;62.60;94730.97;6246286;28;20042;-68
2023/12/29 07:03:06;;;;;;;4.80;3.03;;;;;;;-5.51;61.79;94737.41;6245658;28;20053;-68
2023/12/29 07:06:07;;;;;;;2.78;2.10;;;;;;;-5.22;62.06;94755.09;6245481;28;20415;-68
2023/12/29 07:09:10;;;;;;;3.67;2.50;;;;;;;-5.03;61.64;94765.50;6246099;28;20834;-69
2023/12/29 07:12:12;;;;;;;3.40;2.33;;;;;;;-4.84;60.99;94769.91;6245239;28;20045;-68
2023/12/29 07:15:16;;;;;;;2.55;2.00;;;;;;;-4.98;60.84;94796.13;6245707;28;20045;-68
2023/12/29 07:18:20;;;;;;;3.65;2.50;;;;;;;-5.52;61.31;94780.13;6245182;28;20064;-68
2023/12/29 07:21:24;;;;;;;2.75;2.30;;;;;;;-5.62;62.52;94811.25;6245809;28;20124;-68
2023/12/29 07:24:30;;;;;;;7.25;3.35;;;;;;;-5.80;62.63;94817.84;6245623;28;20466;-68
2023/12/29 07:27:37;;;;;;;7.55;3.40;;;;;;;-6.00;61.95;94810.84;6246017;28;20046;-69
2023/12/29 07:30:38;;;;;;;4.72;2.80;;;;;;;-6.16;62.74;94803.69;6244797;28;20048;-68
2023/12/29 07:33:42;;;;;;;4.88;3.13;;;;;;;-6.29;62.10;94809.25;6243357;28;20053;-67
2023/12/29 07:36:46;;;;;;;5.25;2.90;;;;;;;-6.41;62.78;94819.00;6245290;28;20092;-67
2023/12/29 07:39:50;;;;;;;3.88;2.35;;;;;;;-6.42;63.07;94808.84;6245115;28;20037;-67
2023/12/29 07:42:51;;;;;;;4.22;2.88;;;;;;;-6.48;63.35;94797.06;6244465;28;20045;-67
2023/12/29 07:45:55;;;;;;;5.07;2.50;;;;;;;-6.49;63.43;94817.59;6244966;28;20120;-69
2023/12/29 07:49:02;;;;;;;4.72;2.90;;;;;;;-6.51;63.42;94809.97;6244517;28;20470;-68
2023/12/29 07:52:07;;;;;;;4.65;2.85;;;;;;;-6.54;63.74;94820.28;6245234;28;20052;-69
2023/12/29 07:55:16;;;;;;;5.75;2.47;;;;;;;-6.50;63.50;94826.97;6287534;28;20052;-67
2023/12/29 07:58:19;;;;;;;7.65;3.72;;;;;;;-6.43;64.22;94833.56;6294248;28;20052;-68
2023/12/29 08:01:24;;;;;;;10.82;4.78;;;;;;;-6.46;64.07;94833.66;6293541;28;20048;-69
2023/12/29 08:04:25;;;;;;;10.00;4.50;;;;;;;-6.36;63.65;94832.50;6294212;28;20063;-68
2023/12/29 08:07:29;;;;;;;19.70;7.65;;;;;;;-6.26;63.71;94835.59;6294001;28;20037;-67
2023/12/29 08:10:33;;;;;;;12.40;4.07;;;;;;;-6.11;63.19;94844.53;6294350;28;20044;-68
2023/12/29 08:13:40;;;;;;;10.73;4.40;;;;;;;-6.04;63.92;94845.16;6294005;28;20040;-67
2023/12/29 08:16:42;;;;;;;12.45;5.63;;;;;;;-6.10;63.44;94847.00;6293436;28;20183;-67
2023/12/29 08:19:46;;;;;;;12.25;5.88;;;;;;;-5.99;63.77;94853.50;6294115;28;20425;-67
2023/12/29 08:22:47;;;;;;;6.78;2.60;;;;;;;-5.92;63.84;94860.91;6293937;28;20066;-66
2023/12/29 08:25:48;;;;;;;2.25;2.05;;;;;;;-5.99;64.22;94864.59;6293336;28;20045;-68
2023/12/29 08:28:52;;;;;;;1.33;1.23;;;;;;;-5.90;63.57;94868.53;6294034;28;20102;-67
2023/12/29 08:31:56;;;;;;;3.75;2.45;;;;;;;-6.04;63.27;94863.91;6293004;28;20197;-67
2023/12/29 08:35:00;;;;;;;3.78;1.98;;;;;;;-6.01;63.53;94861.22;6292098;28;20044;-67
2023/12/29 08:38:09;;;;;;;2.53;1.95;;;;;;;-5.88;63.07;94867.59;6293648;28;20516;-68
2023/12/29 08:41:16;;;;;;;5.65;2.97;;;;;;;-5.80;61.88;94881.88;6293628;28;20553;-67
2023/12/29 08:44:22;;;;;;;5.05;1.92;;;;;;;-5.99;62.72;94879.97;6292893;28;20056;-67
2023/12/29 08:47:29;;;;;;;6.38;3.20;;;;;;;-5.94;62.45;94887.50;6293558;28;20044;-67
2023/12/29 08:50:37;;;;;;;4.25;2.50;;;;;;;-5.79;62.64;94873.31;6293422;28;20051;-68
2023/12/29 08:53:42;;;;;;;2.88;2.10;;;;;;;-5.74;62.14;94894.50;6269386;28;20162;-68
2023/12/29 08:56:47;;;;;;;2.28;1.63;;;;;;;-5.71;61.98;94894.38;6243839;28;20142;-67
2023/12/29 08:59:48;;;;;;;2.67;1.70;;;;;;;-5.74;62.74;94894.50;6243293;28;20063;-67
2023/12/29 09:02:52;;;;;;;6.80;3.17;;;;;;;-5.80;62.67;94894.66;6244016;28;20414;-67
2023/12/29 09:06:01;;;;;;;3.22;2.00;;;;;;;-5.71;63.37;94899.50;6243079;28;20056;-67
2023/12/29 09:09:05;;;;;;;3.55;2.65;;;;;;;-5.71;62.53;94879.84;6226155;28;20049;-67
2023/12/29 09:12:12;;;;;;;3.55;2.70;;;;;;;-5.73;63.07;94883.34;6243765;28;20060;-66
2023/12/29 09:15:17;;;;;;;5.00;2.88;;;;;;;-5.84;63.46;94877.75;6243055;28;20517;-68
2023/12/29 09:18:23;;;;;;;4.65;3.30;;;;;;;-5.98;62.49;94868.81;6243717;28;20548;-67
2023/12/29 09:21:27;;;;;;;3.17;2.17;;;;;;;-6.10;63.78;94882.03;6224945;28;20521;-67
2023/12/29 09:24:29;;;;;;;5.40;3.10;;;;;;;-6.01;62.46;94883.44;6243411;28;20033;-67
2023/12/29 09:27:33;;;;;;;3.35;2.42;;;;;;;-6.17;63.31;94885.66;6242704;28;20461;-67
2023/12/29 09:30:34;;;;;;;3.63;2.60;;;;;;;-6.14;63.77;94890.69;6243214;28;20041;-67
2023/12/29 09:33:37;;;;;;;5.13;3.00;;;;;;;-6.07;62.45;94876.81;6243247;28;20046;-67
2023/12/29 09:36:38;;;;;;;3.53;2.90;;;;;;;-6.14;62.61;94903.50;6242796;28;20104;-69
2023/12/29 09:39:41;;;;;;;4.85;3.05;;;;;;;-6.12;63.06;94917.06;6243072;28;20056;-67
2023/12/29 09:42:45;;;;;;;5.75;3.55;;;;;;;-6.07;62.89;94901.56;6243088;28;20434;-67
2023/12/29 09:45:50;;;;;;;6.95;3.72;;;;;;;-5.97;62.57;94915.75;6243114;28;20046;-68
2023/12/29 09:49:04;;;;;;;5.22;3.28;;;;;;;-5.76;62.98;94911.63;6242510;28;20422;-67
2023/12/29 09:52:12;;;;;;;5.70;3.53;;;;;;;-5.26;61.90;94921.91;6245004;28;20132;-67
2023/12/29 09:55:17;;;;;;;3.42;2.33;;;;;;;-4.24;60.47;94913.94;6267099;28;20055;-68
2023/12/29 09:58:25;;;;;;;6.00;3.13;;;;;;;-1.45;56.72;94920.56;6271055;28;20053;-68
2023/12/29 10:01:30;;;;;;;6.80;3.67;;;;;;;0.65;52.60;94922.34;6272332;28;20045;-69
2023/12/29 10:04:35;;;;;;;4.88;3.13;;;;;;;1.68;50.38;94929.22;6272599;28;20471;-67
2023/12/29 10:07:43;;;;;;;2.42;1.90;;;;;;;2.50;49.25;94934.53;6271793;28;20339;-67
2023/12/29 10:10:49;;;;;;;2.00;1.77;;;;;;;2.09;48.50;94950.94;6253160;28;20552;-68
2023/12/29 10:14:03;;;;;;;2.50;1.48;;;;;;;-0.05;50.30;94939.22;6272368;28;20045;-67
2023/12/29 10:17:12;;;;;;;2.20;1.67;;;;;;;-1.70;53.97;94941.56;6272359;28;20045;-66
2023/12/29 10:20:23;;;;;;;3.40;1.38;;;;;;;-2.64;56.57;94941.59;6271936;28;20036;-67
2023/12/29 10:23:41;;;;;;;5.47;2.35;;;;;;;-3.42;56.89;94940.63;6271809;28;20421;-67
2023/12/29 10:26:46;;;;;;;4.82;2.40;;;;;;;-3.90;57.81;94949.41;6271239;28;20122;-67
2023/12/29 10:29:47;;;;;;;2.88;2.20;;;;;;;-4.18;57.25;94944.50;6271140;28;20044;-67
2023/12/29 10:32:55;;;;;;;7.32;3.28;;;;;;;-4.55;57.63;94935.63;6271926;28;20045;-67
2023/12/29 10:36:02;;;;;;;3.88;2.88;;;;;;;-4.81;58.59;94936.53;6271040;28;20045;-67
2023/12/29 10:39:09;;;;;;;2.72;2.03;;;;;;;-4.80;58.51;94935.69;6271137;28;20060;-67
2023/12/29 10:42:11;;;;;;;7.13;4.07;;;;;;;-5.34;58.88;94939.28;6271333;28;20503;-67
2023/12/29 10:45:15;;;;;;;4.47;3.40;;;;;;;-5.58;58.95;94946.03;6271562;28;20041;-68
2023/12/29 10:48:24;;;;;;;6.05;3.75;;;;;;;-5.79;60.01;94957.84;6270661;28;20442;-67
2023/12/29 10:51:30;;;;;;;7.10;3.85;;;;;;;-6.07;60.90;94940.81;6272038;28;20044;-66
2023/12/29 10:54:33;;;;;;;8.25;4.38;;;;;;;-6.30;61.28;94950.91;6249247;28;20515;-67
2023/12/29 10:57:40;;;;;;;8.02;4.38;;;;;;;-6.23;61.58;94978.00;6246124;28;20620;-67
2023/12/29 11:00:41;;;;;;;6.38;4.28;;;;;;;-6.36;62.07;94973.25;6246044;28;20052;-67
2023/12/29 11:04:06;;;;;;;9.57;5.07;;;;;;;-6.68;62.76;94966.50;6246357;28;20430;-68
2023/12/29 11:07:13;;;;;;;7.25;3.72;;;;;;;-6.78;64.02;94960.81;6246306;28;20041;-68
2023/12/29 11:10:17;;;;;;;4.68;3.60;;;;;;;-6.67;64.94;94972.47;6246567;28;20045;-67
2023/12/29 11:13:21;;;;;;;8.20;3.88;;;;;;;-7.02;66.17;94957.22;6245501;28;20056;-68
2023/12/29 11:16:24;;;;;;;4.03;2.70;;;;;;;-6.83;65.67;94967.75;6245339;28;20144;-67
2023/12/29 11:19:31;;;;;;;5.90;2.97;;;;;;;-6.92;65.91;94978.25;6245633;28;20057;-67
2023/12/29 11:22:35;;;;;;;5.57;3.42;;;;;;;-7.19;65.98;94982.38;6245773;28;20037;-68
2023/12/29 11:25:45;;;;;;;3.88;2.38;;;;;;;-7.24;66.21;94985.06;6245817;28;20045;-68
2023/12/29 11:28:48;;;;;;;7.63;4.47;;;;;;;-7.34;66.63;94991.28;6245641;28;20501;-67
2023/12/29 11:31:51;;;;;;;6.68;4.05;;;;;;;-7.21;65.12;94996.09;6244851;28;20041;-67
2023/12/29 11:35:04;;;;;;;3.60;2.15;;;;;;;-7.32;64.78;94986.97;6245446;28;20038;-68
2023/12/29 11:38:20;;;;;;;3.53;2.17;;;;;;;-7.60;65.00;95020.03;6245466;28;20037;-68
2023/12/29 11:41:23;;;;;;;1.77;1.67;;;;;;;-7.62;65.27;95000.50;6245328;28;20049;-68
2023/12/29 11:44:28;;;;;;;2.50;2.15;;;;;;;-7.79;65.55;95024.72;6244452;28;20053;-68
2023/12/29 11:47:35;;;;;;;1.85;1.55;;;;;;;-7.97;65.64;95025.16;6245643;28;20037;-67
2023/12/29 11:50:40;;;;;;;3.03;2.80;;;;;;;-8.14;66.90;95039.13;6244224;28;20171;-68
2023/12/29 11:53:44;;;;;;;4.05;2.30;;;;;;;-7.89;66.24;95027.56;6244782;28;20053;-68
2023/12/29 11:56:53;;;;;;;2.85;2.50;;;;;;;-7.95;66.78;95043.84;6227695;28;20045;-68
2023/12/29 12:00:00;;;;;;;4.50;2.75;;;;;;;-7.86;66.49;95037.69;6245190;28;20041;-67
2023/12/29 12:03:16;;;;;;;6.30;3.85;;;;;;;-7.94;66.85;95058.28;6244681;28;20056;-69
2023/12/29 12:06:37;;;;;;;3.05;2.72;;;;;;;-8.11;67.78;95058.63;6243757;28;20045;-68
2023/12/29 12:09:42;;;;;;;6.30;3.55;;;;;;;-8.09;68.09;95068.84;6244261;28;20041;-67
2023/12/29 12:12:44;;;;;;;3.88;3.20;;;;;;;-8.10;67.26;95069.69;6244442;28;20596;-68
2023/12/29 12:15:45;;;;;;;5.97;3.60;;;;;;;-8.42;67.45;95063.56;6243508;28;20045;-68
2023/12/29 12:18:48;;;;;;;7.63;4.13;;;;;;;-8.38;68.11;95086.41;6243306;28;20057;-67
2023/12/29 12:21:56;;;;;;;8.70;4.57;;;;;;;-8.57;67.99;95074.09;6243825;28;20061;-67
2023/12/29 12:25:00;;;;;;;11.07;4.88;;;;;;;-8.74;67.67;95098.19;6243670;28;20140;-68
2023/12/29 12:28:06;;;;;;;6.15;2.90;;;;;;;-8.90;68.09;95122.28;6244276;28;20526;-67
2023/12/29 12:31:12;;;;;;;9.35;4.60;;;;;;;-8.91;67.91;95123.16;6243716;28;20045;-68
2023/12/29 12:34:16;;;;;;;5.10;4.25;;;;;;;-8.98;67.96;95140.25;6243551;28;20044;-67
2023/12/29 12:37:24;;;;;;;7.45;4.40;;;;;;;-9.01;67.79;95135.19;6244220;28;20054;-67
2023/12/29 12:40:30;;;;;;;9.45;5.45;;;;;;;-9.01;67.99;95139.47;6243723;28;20427;-67
2023/12/29 12:43:38;;;;;;;6.82;4.78;;;;;;;-9.11;67.84;95134.53;6244008;28;20041;-67
2023/12/29 12:46:47;;;;;;;4.35;3.25;;;;;;;-8.95;68.14;95149.53;6243373;28;20045;-69
2023/12/29 12:49:51;;;;;;;5.00;3.83;;;;;;;-8.98;67.63;95159.78;6244069;28;20057;-68
2023/12/29 12:52:57;;;;;;;5.80;2.42;;;;;;;-8.85;66.91;95171.47;6243326;28;20084;-68
2023/12/29 12:56:03;;;;;;;4.57;3.55;;;;;;;-9.02;67.09;95178.56;6226064;28;20136;-67
2023/12/29 12:59:09;;;;;;;5.97;3.50;;;;;;;-9.08;66.75;95177.78;6243283;28;20053;-67
2023/12/29 13:02:11;;;;;;;4.00;3.35;;;;;;;-9.04;66.91;95199.78;6243342;28;20045;-68
2023/12/29 13:05:16;;;;;;;2.40;1.92;;;;;;;-9.09;67.01;95193.09;6243925;28;20041;-68
2023/12/29 13:08:18;;;;;;;5.22;3.65;;;;;;;-8.88;66.02;95202.09;6243565;28;20063;-67
2023/12/29 13:11:26;;;;;;;5.50;3.33;;;;;;;-8.93;65.61;95206.44;6243748;28;20041;-68
2023/12/29 13:14:33;;;;;;;7.68;3.92;;;;;;;-9.20;66.26;95208.53;6243847;28;20124;-67
2023/12/29 13:17:37;;;;;;;6.80;4.55;;;;;;;-9.23;66.37;95215.38;6242710;28;20049;-67
2023/12/29 13:20:47;;;;;;;4.82;3.40;;;;;;;-9.00;65.83;95220.13;6242554;28;20057;-67
2023/12/29 13:23:55;;;;;;;7.50;4.10;;;;;;;-9.15;66.25;95214.41;6243477;28;20049;-68
2023/12/29 13:27:05;;;;;;;7.18;3.80;;;;;;;-9.18;66.31;95218.72;6243151;28;20052;-68
2023/12/29 13:30:07;;;;;;;8.18;5.25;;;;;;;-9.14;66.01;95218.66;6243394;28;20041;-68
2023/12/29 13:33:24;;;;;;;6.38;3.88;;;;;;;-8.94;64.95;95212.41;6247911;28;20135;-67
2023/12/29 13:36:43;;;;;;;2.15;1.83;;;;;;;-8.82;64.83;95218.13;6248402;28;20623;-69
2023/12/29 13:39:59;;;;;;;4.15;3.15;;;;;;;-8.95;64.38;95223.44;6248249;28;20496;-68
2023/12/29 13:43:06;;;;;;;4.90;2.45;;;;;;;-8.83;63.90;95225.78;6247943;28;20041;-67
2023/12/29 13:46:16;;;;;;;3.75;2.35;;;;;;;-8.99;64.61;95215.00;6248038;28;20045;-66
2023/12/29 13:49:19;;;;;;;6.47;3.50;;;;;;;-9.02;64.25;95226.97;6247259;28;20053;-68
2023/12/29 13:52:20;;;;;;;7.25;3.22;;;;;;;-9.09;64.36;95228.75;6247221;28;20057;-67
2023/12/29 13:55:29;;;;;;;3.40;2.80;;;;;;;-9.11;64.22;95226.25;6247618;28;20628;-67
2023/12/29 13:58:32;;;;;;;4.93;3.55;;;;;;;-9.10;64.67;95221.97;6247073;28;20049;-68
2023/12/29 14:01:40;;;;;;;3.30;2.63;;;;;;;-8.94;64.35;95232.78;6247591;28;20049;-68
2023/12/29 14:04:45;;;;;;;5.13;3.53;;;;;;;-9.05;64.86;95236.34;6247335;28;20057;-68
2023/12/29 14:08:00;;;;;;;7.30;3.05;;;;;;;-9.08;64.89;95241.47;6247965;28;20503;-68
2023/12/29 14:11:10;;;;;;;4.72;2.22;;;;;;;-9.09;64.95;95244.88;6247806;28;20041;-68
2023/12/29 14:14:29;;;;;;;8.25;4.07;;;;;;;-9.16;64.70;95253.50;6247893;28;20045;-68
2023/12/29 14:17:30;;;;;;;;;;;;;;;-9.08;64.72;95246.56;6247433;28;20518;-66
2023/12/29 14:20:35;;;;;;;4.10;2.88;;;;;;;-9.17;64.69;95249.28;6246852;28;20510;-68
2023/12/29 14:23:41;;;;;;;10.00;3.78;;;;;;;-9.04;64.46;95247.38;6247371;28;20045;-68
2023/12/29 14:26:53;;;;;;;4.00;3.30;;;;;;;-9.31;64.96;95263.91;6247249;28;20045;-67
2023/12/29 14:29:58;;;;;;;5.53;3.42;;;;;;;-9.33;64.84;95274.09;6247097;28;20095;-67
2023/12/29 14:32:59;;;;;;;5.82;2.30;;;;;;;-9.24;64.64;95273.13;6246232;28;20431;-67
2023/12/29 14:36:00;;;;;;;4.53;3.30;;;;;;;-9.26;64.58;95273.13;6246271;28;20136;-68